createdAt,value
2022-09-12T00:00:29.368Z,95754.84
2022-09-12T00:02:57.476Z,95755.59
2022-09-12T00:05:25.355Z,95755.59
2022-09-12T00:07:53.070Z,95753.06
2022-09-12T00:10:20.929Z,95751.25
2022-09-12T00:12:49.869Z,95751.88
2022-09-12T00:15:17.662Z,95741.66
2022-09-12T00:17:45.420Z,95748.59
2022-09-12T00:20:13.750Z,95743.63
2022-09-12T00:22:41.409Z,95745.47
2022-09-12T00:25:09.484Z,95743.56
2022-09-12T00:27:37.082Z,95739.84
2022-09-12T00:30:07.247Z,95745.78
2022-09-12T00:32:35.076Z,95734.81
2022-09-12T00:35:03.356Z,95733.81
2022-09-12T00:37:31.235Z,95739.56
2022-09-12T00:39:59.202Z,95742.81
2022-09-12T00:42:27.541Z,95745.06
2022-09-12T00:44:55.173Z,95741.19
2022-09-12T00:47:30.454Z,95727.16
2022-09-12T00:50:04.324Z,95728.91
2022-09-12T00:52:36.653Z,95726.00
2022-09-12T00:55:08.733Z,95730.88
2022-09-12T00:57:41.993Z,95726.78
2022-09-12T01:00:15.905Z,95720.41
2022-09-12T01:02:52.986Z,95710.84
2022-09-12T01:05:22.324Z,95715.53
2022-09-12T01:07:51.703Z,95715.31
2022-09-12T01:10:20.509Z,95715.22
2022-09-12T01:12:49.563Z,95708.31
2022-09-12T01:15:17.366Z,95701.38
2022-09-12T01:17:58.514Z,95698.97
2022-09-12T01:20:57.888Z,95691.72
2022-09-12T01:23:54.844Z,95703.94
2022-09-12T01:26:53.068Z,95697.00
2022-09-12T01:29:41.370Z,95698.66
2022-09-12T01:32:17.184Z,95686.66
2022-09-12T01:34:51.435Z,95680.56
2022-09-12T01:37:33.406Z,95679.47
2022-09-12T01:40:08.288Z,95686.16
2022-09-12T01:42:47.512Z,95692.59
2022-09-12T01:45:21.639Z,95687.31
2022-09-12T01:47:55.638Z,95691.31
2022-09-12T01:50:29.086Z,95692.06
2022-09-12T01:53:02.104Z,95692.06
2022-09-12T01:55:33.516Z,95683.16
2022-09-12T01:58:07.764Z,95670.94
2022-09-12T02:00:41.161Z,95669.31
2022-09-12T02:03:15.433Z,95667.97
2022-09-12T02:05:48.334Z,95664.25
2022-09-12T02:08:21.481Z,95671.56
2022-09-12T02:10:54.529Z,95661.63
2022-09-12T02:13:27.440Z,95667.25
2022-09-12T02:16:00.090Z,95665.72
2022-09-12T02:18:33.250Z,95664.09
2022-09-12T02:21:02.528Z,95656.56
2022-09-12T02:23:33.232Z,95651.91
2022-09-12T02:26:04.463Z,95648.25
2022-09-12T02:28:36.712Z,95641.34
2022-09-12T02:31:12.726Z,95649.47
2022-09-12T02:33:49.888Z,95644.78
2022-09-12T02:36:34.818Z,95640.31
2022-09-12T02:39:02.950Z,95644.84
2022-09-12T02:41:30.936Z,95640.00
2022-09-12T02:43:58.839Z,95649.38
2022-09-12T02:46:29.736Z,95643.56
2022-09-12T02:48:59.043Z,95643.84
2022-09-12T02:51:27.244Z,95652.13
2022-09-12T02:53:55.490Z,95642.91
2022-09-12T02:56:28.088Z,95642.00
2022-09-12T02:58:59.987Z,95642.38
2022-09-12T03:01:42.175Z,95645.13
2022-09-12T03:04:26.858Z,95641.81
2022-09-12T03:07:05.315Z,95636.19
2022-09-12T03:09:41.082Z,95623.09
2022-09-12T03:12:24.575Z,95629.47
2022-09-12T03:15:10.941Z,95625.25
2022-09-12T03:17:52.372Z,95628.09
2022-09-12T03:20:30.865Z,95624.28
2022-09-12T03:23:03.687Z,95621.81
2022-09-12T03:25:37.673Z,95633.28
2022-09-12T03:28:09.324Z,95636.19
2022-09-12T03:30:39.947Z,95622.63
2022-09-12T03:33:07.867Z,95629.72
2022-09-12T03:35:37.306Z,95635.38
2022-09-12T03:38:07.933Z,95637.19
2022-09-12T03:40:35.685Z,95642.03
2022-09-12T03:43:03.838Z,95637.38
2022-09-12T03:45:32.260Z,95643.09
2022-09-12T03:48:00.159Z,95639.06
2022-09-12T03:50:28.267Z,95643.09
2022-09-12T03:52:57.245Z,95635.81
2022-09-12T03:55:25.550Z,95635.44
2022-09-12T03:57:54.013Z,95644.81
2022-09-12T04:00:22.126Z,95638.38
2022-09-12T04:02:49.818Z,95632.72
2022-09-12T04:05:17.796Z,95641.66
2022-09-12T04:07:45.391Z,95636.81
2022-09-12T04:10:16.322Z,95639.63
2022-09-12T04:12:44.307Z,95641.22
2022-09-12T04:15:12.167Z,95634.28
2022-09-12T04:17:39.810Z,95635.75
2022-09-12T04:20:08.124Z,95633.09
2022-09-12T04:22:35.758Z,95639.19
2022-09-12T04:25:05.138Z,95631.72
2022-09-12T04:27:34.446Z,95630.72
2022-09-12T04:30:03.102Z,95630.72
2022-09-12T04:32:31.378Z,95633.19
2022-09-12T04:34:59.778Z,95636.00
2022-09-12T04:37:27.684Z,95635.66
2022-09-12T04:39:57.917Z,95637.81
2022-09-12T04:42:25.768Z,95632.72
2022-09-12T04:44:54.678Z,95627.66
2022-09-12T04:47:23.272Z,95627.47
2022-09-12T04:49:51.483Z,95628.03
2022-09-12T04:52:19.566Z,95629.47
2022-09-12T04:54:47.159Z,95632.28
2022-09-12T04:57:15.430Z,95636.09
2022-09-12T04:59:43.279Z,95628.53
2022-09-12T05:02:12.358Z,95635.81
2022-09-12T05:04:40.031Z,95631.72
2022-09-12T05:07:08.449Z,95627.25
2022-09-12T05:09:36.359Z,95634.16
2022-09-12T05:12:05.658Z,95640.69
2022-09-12T05:14:34.078Z,95642.03
2022-09-12T05:17:02.142Z,95642.47
2022-09-12T05:19:31.959Z,95643.56
2022-09-12T05:22:00.626Z,95656.81
2022-09-12T05:24:28.760Z,95648.75
2022-09-12T05:26:57.206Z,95649.63
2022-09-12T05:29:25.614Z,95647.66
2022-09-12T05:31:53.426Z,95647.38
2022-09-12T05:34:21.678Z,95646.25
2022-09-12T05:36:50.642Z,95647.78
2022-09-12T05:39:18.759Z,95650.97
2022-09-12T05:41:47.301Z,95656.75
2022-09-12T05:44:15.819Z,95652.53
2022-09-12T05:46:46.657Z,95654.88
2022-09-12T05:49:14.769Z,95659.22
2022-09-12T05:51:45.158Z,95666.78
2022-09-12T05:54:17.768Z,95658.28
2022-09-12T05:56:46.402Z,95664.03
2022-09-12T05:59:16.193Z,95656.34
2022-09-12T06:01:45.061Z,95669.81
2022-09-12T06:04:13.624Z,95674.59
2022-09-12T06:06:45.036Z,95673.88
2022-09-12T06:09:17.470Z,95674.22
2022-09-12T06:11:47.083Z,95673.91
2022-09-12T06:14:17.695Z,95674.13
2022-09-12T06:16:46.492Z,95671.97
2022-09-12T06:19:16.303Z,95674.06
2022-09-12T06:21:45.197Z,95665.56
2022-09-12T06:24:14.362Z,95665.63
2022-09-12T06:26:43.683Z,95664.88
2022-09-12T06:29:13.257Z,95666.44
2022-09-12T06:31:42.686Z,95656.72
2022-09-12T06:34:11.908Z,95659.97
2022-09-12T06:36:42.931Z,95662.03
2022-09-12T06:39:14.666Z,95657.84
2022-09-12T06:41:44.233Z,95664.88
2022-09-12T06:44:14.244Z,95661.84
2022-09-12T06:46:41.858Z,95664.31
2022-09-12T06:49:09.951Z,95660.03
2022-09-12T06:51:38.356Z,95658.59
2022-09-12T06:54:06.646Z,95662.09
2022-09-12T06:56:36.011Z,95662.06
2022-09-12T06:59:03.670Z,95659.19
2022-09-12T07:01:32.894Z,95668.56
2022-09-12T07:04:02.446Z,95661.22
2022-09-12T07:06:33.102Z,95655.06
2022-09-12T07:09:02.599Z,95663.41
2022-09-12T07:11:33.710Z,95663.16
2022-09-12T07:14:04.798Z,95661.91
2022-09-12T07:16:33.351Z,95660.31
2022-09-12T07:19:02.871Z,95659.38
2022-09-12T07:21:31.715Z,95663.41
2022-09-12T07:23:59.627Z,95653.91
2022-09-12T07:26:29.550Z,95654.72
2022-09-12T07:29:13.229Z,95658.31
2022-09-12T07:31:48.461Z,95656.44
2022-09-12T07:34:17.510Z,95652.09
2022-09-12T07:36:45.774Z,95649.03
2022-09-12T07:39:13.432Z,95657.13
2022-09-12T07:41:41.832Z,95651.47
2022-09-12T07:44:09.591Z,95653.59
2022-09-12T07:46:37.755Z,95658.31
2022-09-12T07:49:08.479Z,95661.47
2022-09-12T07:51:36.296Z,95661.31
2022-09-12T07:54:09.373Z,95653.31
2022-09-12T07:56:39.245Z,95660.56
2022-09-12T07:59:08.387Z,95646.94
2022-09-12T08:01:36.337Z,95656.06
2022-09-12T08:04:05.605Z,95648.00
2022-09-12T08:06:36.150Z,95653.88
2022-09-12T08:09:05.630Z,95652.31
2022-09-12T08:11:33.272Z,95655.22
2022-09-12T08:14:03.408Z,95663.94
2022-09-12T08:16:32.363Z,95660.09
2022-09-12T08:19:02.474Z,95664.06
2022-09-12T08:21:32.578Z,95661.34
2022-09-12T08:24:04.988Z,95659.66
2022-09-12T08:26:33.912Z,95662.16
2022-09-12T08:29:02.278Z,95662.91
2022-09-12T08:31:31.843Z,95659.09
2022-09-12T08:34:01.130Z,95657.63
2022-09-12T08:36:29.847Z,95654.28
2022-09-12T08:39:00.531Z,95651.69
2022-09-12T08:41:34.923Z,95659.38
2022-09-12T08:44:33.200Z,95652.38
2022-09-12T08:47:20.410Z,95653.75
2022-09-12T08:49:56.340Z,95655.69
2022-09-12T08:52:30.051Z,95653.59
2022-09-12T08:54:58.307Z,95649.03
2022-09-12T08:57:27.480Z,95651.47
2022-09-12T08:59:55.501Z,95642.81
2022-09-12T09:03:03.550Z,95648.38
2022-09-12T09:05:47.147Z,95654.69
2022-09-12T09:08:32.244Z,95647.50
2022-09-12T09:11:13.108Z,95655.91
2022-09-12T09:14:14.148Z,95649.00
2022-09-12T09:16:45.066Z,95640.84
2022-09-12T09:19:17.912Z,95634.69
2022-09-12T09:21:51.793Z,95642.19
2022-09-12T09:24:23.299Z,95640.44
2022-09-12T09:26:59.043Z,95638.63
2022-09-12T09:29:32.486Z,95637.34
2022-09-12T09:32:02.140Z,95634.66
2022-09-12T09:34:33.086Z,95630.63
2022-09-12T09:37:08.250Z,95631.72
2022-09-12T09:39:47.656Z,95627.63
2022-09-12T09:42:28.530Z,95630.19
2022-09-12T09:45:00.770Z,95623.69
2022-09-12T09:47:28.389Z,95611.38
2022-09-12T09:49:56.024Z,95622.47
2022-09-12T09:52:27.514Z,95615.59
2022-09-12T09:54:59.269Z,95602.78
2022-09-12T09:57:41.367Z,95614.88
2022-09-12T10:00:30.772Z,95614.25
2022-09-12T10:03:06.268Z,95617.13
2022-09-12T10:05:46.559Z,95617.59
2022-09-12T10:08:24.427Z,95614.31
2022-09-12T10:10:57.884Z,95602.84
2022-09-12T10:13:31.648Z,95603.13
2022-09-12T10:16:02.920Z,95603.84
2022-09-12T10:18:40.097Z,95604.19
2022-09-12T10:21:32.179Z,95605.91
2022-09-12T10:24:04.846Z,95607.59
2022-09-12T10:26:36.137Z,95600.75
2022-09-12T10:29:18.275Z,95611.16
2022-09-12T10:31:54.044Z,95609.69
2022-09-12T10:34:30.591Z,95603.50
2022-09-12T10:37:05.546Z,95606.03
2022-09-12T10:39:35.466Z,95597.56
2022-09-12T10:42:04.710Z,95593.09
2022-09-12T10:44:34.535Z,95595.53
2022-09-12T10:47:21.541Z,95594.41
2022-09-12T10:49:51.328Z,95583.03
2022-09-12T10:52:24.174Z,95590.41
2022-09-12T10:54:52.373Z,95584.16
2022-09-12T10:57:43.304Z,95579.44
2022-09-12T11:00:17.947Z,95578.03
2022-09-12T11:03:00.114Z,95580.44
2022-09-12T11:05:42.863Z,95574.22
2022-09-12T11:08:20.819Z,95576.81
2022-09-12T11:10:57.021Z,95572.88
2022-09-12T11:13:48.177Z,95578.75
2022-09-12T11:16:26.630Z,95568.28
2022-09-12T11:19:11.895Z,95565.16
2022-09-12T11:21:51.056Z,95569.78
2022-09-12T11:24:45.829Z,95561.25
2022-09-12T11:27:29.367Z,95568.25
2022-09-12T11:30:00.844Z,95552.69
2022-09-12T11:32:42.504Z,95559.03
2022-09-12T11:35:20.484Z,95559.69
2022-09-12T11:38:00.709Z,95567.50
2022-09-12T11:40:33.843Z,95553.00
2022-09-12T11:43:08.672Z,95558.88
2022-09-12T11:45:42.178Z,95563.75
2022-09-12T11:48:17.102Z,95561.97
2022-09-12T11:50:46.325Z,95559.44
2022-09-12T11:53:20.895Z,95560.00
2022-09-12T11:55:56.538Z,95562.84
2022-09-12T11:58:29.223Z,95564.28
2022-09-12T12:01:05.451Z,95567.16
2022-09-12T12:03:38.770Z,95562.66
2022-09-12T12:06:14.292Z,95565.50
2022-09-12T12:08:44.106Z,95566.09
2022-09-12T12:11:15.306Z,95564.50
2022-09-12T12:13:49.590Z,95564.50
2022-09-12T12:16:23.551Z,95560.59
2022-09-12T12:18:55.880Z,95564.16
2022-09-12T12:21:39.700Z,95558.72
2022-09-12T12:24:17.052Z,95554.84
2022-09-12T12:26:56.931Z,95554.72
2022-09-12T12:29:43.836Z,95540.59
2022-09-12T12:32:28.129Z,95540.59
2022-09-12T12:35:35.497Z,95528.34
2022-09-12T12:38:06.674Z,95535.34
2022-09-12T12:40:34.266Z,95527.84
2022-09-12T12:43:07.977Z,95526.94
2022-09-12T12:46:11.961Z,95521.09
2022-09-12T12:49:08.207Z,95517.63
2022-09-12T12:51:45.430Z,95511.91
2022-09-12T12:54:32.414Z,95511.41
2022-09-12T12:57:18.182Z,95514.69
2022-09-12T12:59:52.781Z,95517.41
2022-09-12T13:02:24.489Z,95511.44
2022-09-12T13:04:53.760Z,95502.81
2022-09-12T13:07:28.855Z,95505.53
2022-09-12T13:09:59.448Z,95501.50
2022-09-12T13:12:30.088Z,95498.56
2022-09-12T13:14:59.384Z,95491.63
2022-09-12T13:17:33.167Z,95490.03
2022-09-12T13:20:28.015Z,95494.09
2022-09-12T13:22:57.047Z,95476.28
2022-09-12T13:25:29.572Z,95479.56
2022-09-12T13:28:03.984Z,95475.22
2022-09-12T13:30:34.422Z,95474.91
2022-09-12T13:33:14.047Z,95472.50
2022-09-12T13:35:54.727Z,95474.91
2022-09-12T13:38:32.241Z,95465.72
2022-09-12T13:41:21.932Z,95459.19
2022-09-12T13:43:50.410Z,95459.69
2022-09-12T13:46:30.629Z,95458.59
2022-09-12T13:48:59.544Z,95457.75
2022-09-12T13:51:30.103Z,95455.31
2022-09-12T13:54:00.180Z,95462.59
2022-09-12T13:56:29.515Z,95462.91
2022-09-12T13:59:00.249Z,95450.00
2022-09-12T14:01:39.879Z,95455.41
2022-09-12T14:04:34.356Z,95452.72
2022-09-12T14:07:05.003Z,95452.19
2022-09-12T14:09:38.467Z,95453.78
2022-09-12T14:12:18.256Z,95441.09
2022-09-12T14:14:49.904Z,95451.16
2022-09-12T14:17:20.813Z,95457.59
2022-09-12T14:19:52.593Z,95450.00
2022-09-12T14:22:20.979Z,95442.47
2022-09-12T14:24:51.571Z,95449.50
2022-09-12T14:27:25.697Z,95449.50
2022-09-12T14:30:03.734Z,95443.78
2022-09-12T14:32:31.800Z,95439.75
2022-09-12T14:35:21.368Z,95444.63
2022-09-12T14:37:51.475Z,95436.44
2022-09-12T14:40:21.505Z,95430.44
2022-09-12T14:42:52.650Z,95428.03
2022-09-12T14:45:26.188Z,95432.63
2022-09-12T14:47:54.607Z,95427.75
2022-09-12T14:50:24.580Z,95421.25
2022-09-12T14:53:05.090Z,95423.31
2022-09-12T14:55:34.726Z,95422.13
2022-09-12T14:58:16.689Z,95415.56
2022-09-12T15:01:00.126Z,95404.44
2022-09-12T15:03:33.909Z,95402.53
2022-09-12T15:06:03.965Z,95404.19
2022-09-12T15:08:33.203Z,95408.00
2022-09-12T15:11:01.428Z,95408.91
2022-09-12T15:13:32.564Z,95403.97
2022-09-12T15:16:00.831Z,95396.53
2022-09-12T15:18:30.276Z,95398.28
2022-09-12T15:21:03.477Z,95399.22
2022-09-12T15:23:36.266Z,95401.88
2022-09-12T15:26:04.311Z,95402.84
2022-09-12T15:28:34.384Z,95395.16
2022-09-12T15:31:07.697Z,95397.31
2022-09-12T15:33:35.492Z,95391.41
2022-09-12T15:36:03.637Z,95388.63
2022-09-12T15:38:31.822Z,95387.69
2022-09-12T15:40:59.404Z,95385.03
2022-09-12T15:43:27.330Z,95382.13
2022-09-12T15:45:56.307Z,95386.28
2022-09-12T15:48:24.696Z,95383.94
2022-09-12T15:50:52.267Z,95388.28
2022-09-12T15:53:19.855Z,95388.75
2022-09-12T15:55:47.441Z,95387.28
2022-09-12T15:58:15.280Z,95387.50
2022-09-12T16:00:42.878Z,95379.31
2022-09-12T16:03:21.761Z,95386.81
2022-09-12T16:05:49.622Z,95376.22
2022-09-12T16:08:17.689Z,95380.34
2022-09-12T16:10:47.150Z,95368.72
2022-09-12T16:13:15.095Z,95375.28
2022-09-12T16:15:42.746Z,95380.00
2022-09-12T16:18:10.779Z,95381.44
2022-09-12T16:20:41.095Z,95373.09
2022-09-12T16:23:11.176Z,95384.56
2022-09-12T16:25:38.810Z,95378.81
2022-09-12T16:28:06.707Z,95372.44
2022-09-12T16:30:34.833Z,95381.69
2022-09-12T16:33:02.994Z,95378.47
2022-09-12T16:35:32.847Z,95375.28
2022-09-12T16:38:02.135Z,95375.84
2022-09-12T16:40:30.350Z,95365.16
2022-09-12T16:42:58.584Z,95368.97
2022-09-12T16:45:26.182Z,95370.06
2022-09-12T16:47:53.922Z,95367.88
2022-09-12T16:50:21.511Z,95363.06
2022-09-12T16:52:49.410Z,95370.34
2022-09-12T16:55:18.366Z,95364.44
2022-09-12T16:57:47.596Z,95358.81
2022-09-12T17:00:15.675Z,95362.56
2022-09-12T17:02:43.756Z,95357.69
2022-09-12T17:05:11.474Z,95360.66
2022-09-12T17:07:39.810Z,95359.84
2022-09-12T17:10:08.434Z,95362.03
2022-09-12T17:12:38.065Z,95370.34
2022-09-12T17:15:06.479Z,95359.81
2022-09-12T17:17:34.311Z,95364.38
2022-09-12T17:20:02.014Z,95369.44
2022-09-12T17:22:30.291Z,95363.97
2022-09-12T17:24:57.899Z,95360.38
2022-09-12T17:27:25.923Z,95360.56
2022-09-12T17:29:54.863Z,95359.91
2022-09-12T17:32:23.162Z,95360.34
2022-09-12T17:34:50.775Z,95359.97
2022-09-12T17:37:18.386Z,95360.66
2022-09-12T17:39:47.254Z,95361.38
2022-09-12T17:42:14.966Z,95364.66
2022-09-12T17:44:42.578Z,95366.75
2022-09-12T17:47:11.546Z,95366.59
2022-09-12T17:49:39.363Z,95362.66
2022-09-12T17:52:07.628Z,95365.47
2022-09-12T17:54:35.204Z,95365.34
2022-09-12T17:57:04.800Z,95368.13
2022-09-12T17:59:32.409Z,95375.00
2022-09-12T18:02:14.719Z,95368.41
2022-09-12T18:04:47.284Z,95370.56
2022-09-12T18:07:16.069Z,95381.25
2022-09-12T18:09:43.787Z,95385.31
2022-09-12T18:12:12.095Z,95365.75
2022-09-12T18:14:39.956Z,95378.03
2022-09-12T18:17:08.657Z,95378.19
2022-09-12T18:19:36.751Z,95373.72
2022-09-12T18:22:07.011Z,95376.69
2022-09-12T18:24:34.880Z,95374.66
2022-09-12T18:27:03.946Z,95373.75
2022-09-12T18:29:31.572Z,95369.34
2022-09-12T18:31:59.353Z,95369.16
2022-09-12T18:34:27.294Z,95369.78
2022-09-12T18:36:55.555Z,95369.91
2022-09-12T18:39:27.658Z,95384.00
2022-09-12T18:41:55.859Z,95377.16
2022-09-12T18:44:23.440Z,95374.78
2022-09-12T18:46:51.097Z,95377.09
2022-09-12T18:49:18.774Z,95379.09
2022-09-12T18:51:46.785Z,95383.47
2022-09-12T18:54:15.369Z,95391.84
2022-09-12T18:56:45.608Z,95399.03
2022-09-12T18:59:14.726Z,95393.38
2022-09-12T19:01:43.470Z,95391.84
2022-09-12T19:04:13.392Z,95402.16
2022-09-12T19:06:43.101Z,95398.88
2022-09-12T19:09:12.499Z,95399.88
2022-09-12T19:11:48.540Z,95400.78
2022-09-12T19:14:18.802Z,95399.34
2022-09-12T19:16:46.739Z,95399.50
2022-09-12T19:19:14.352Z,95397.25
2022-09-12T19:21:43.227Z,95398.19
2022-09-12T19:24:11.917Z,95392.47
2022-09-12T19:26:40.754Z,95401.59
2022-09-12T19:29:09.134Z,95393.50
2022-09-12T19:31:38.199Z,95391.88
2022-09-12T19:34:07.810Z,95387.44
2022-09-12T19:36:51.703Z,95386.28
2022-09-12T19:39:20.436Z,95389.13
2022-09-12T19:41:49.213Z,95385.66
2022-09-12T19:44:19.091Z,95385.31
2022-09-12T19:46:48.171Z,95381.84
2022-09-12T19:49:15.822Z,95393.41
2022-09-12T19:51:43.928Z,95392.47
2022-09-12T19:54:13.602Z,95389.56
2022-09-12T19:56:41.253Z,95399.19
2022-09-12T19:59:09.671Z,95392.47
2022-09-12T20:01:37.789Z,95393.28
2022-09-12T20:04:07.506Z,95394.31
2022-09-12T20:06:36.997Z,95389.28
2022-09-12T20:09:04.881Z,95380.72
2022-09-12T20:11:32.563Z,95383.59
2022-09-12T20:14:00.407Z,95388.53
2022-09-12T20:16:30.039Z,95385.28
2022-09-12T20:18:59.970Z,95383.88
2022-09-12T20:21:32.890Z,95385.13
2022-09-12T20:24:02.887Z,95387.41
2022-09-12T20:26:31.036Z,95379.19
2022-09-12T20:28:58.988Z,95378.00
2022-09-12T20:31:26.812Z,95376.25
2022-09-12T20:33:55.211Z,95376.47
2022-09-12T20:36:23.991Z,95369.59
2022-09-12T20:38:56.573Z,95363.06
2022-09-12T20:41:24.995Z,95361.31
2022-09-12T20:43:53.203Z,95367.66
2022-09-12T20:46:22.594Z,95370.16
2022-09-12T20:48:51.157Z,95370.63
2022-09-12T20:51:19.142Z,95364.09
2022-09-12T20:53:47.116Z,95368.22
2022-09-12T20:56:16.216Z,95373.16
2022-09-12T20:58:44.796Z,95370.41
2022-09-12T21:01:13.558Z,95373.28
2022-09-12T21:03:42.217Z,95370.41
2022-09-12T21:06:12.842Z,95373.50
2022-09-12T21:08:41.274Z,95372.16
2022-09-12T21:11:09.346Z,95384.13
2022-09-12T21:13:38.752Z,95385.63
2022-09-12T21:16:08.427Z,95383.69
2022-09-12T21:18:36.806Z,95380.00
2022-09-12T21:21:06.300Z,95374.91
2022-09-12T21:23:34.907Z,95375.97
2022-09-12T21:26:03.350Z,95377.22
2022-09-12T21:28:32.014Z,95372.94
2022-09-12T21:31:01.360Z,95379.66
2022-09-12T21:33:29.100Z,95368.84
2022-09-12T21:36:01.592Z,95377.03
2022-09-12T21:38:30.367Z,95380.13
2022-09-12T21:41:04.944Z,95386.47
2022-09-12T21:43:32.644Z,95382.41
2022-09-12T21:46:02.341Z,95383.00
2022-09-12T21:48:30.656Z,95384.44
2022-09-12T21:50:58.695Z,95391.78
2022-09-12T21:53:26.858Z,95377.13
2022-09-12T21:55:54.494Z,95384.06
2022-09-12T21:58:22.421Z,95379.19
2022-09-12T22:00:51.160Z,95367.34
2022-09-12T22:03:20.662Z,95367.78
2022-09-12T22:05:52.090Z,95366.16
2022-09-12T22:08:19.762Z,95369.41
2022-09-12T22:10:47.400Z,95368.16
2022-09-12T22:13:15.014Z,95365.28
2022-09-12T22:15:44.207Z,95358.34
2022-09-12T22:18:12.436Z,95344.94
2022-09-12T22:20:41.408Z,95343.31
2022-09-12T22:23:26.794Z,95355.34
2022-09-12T22:25:56.607Z,95349.84
2022-09-12T22:28:25.171Z,95342.09
2022-09-12T22:30:54.728Z,95348.31
2022-09-12T22:33:22.644Z,95352.09
2022-09-12T22:35:51.783Z,95356.22
2022-09-12T22:38:19.714Z,95354.59
2022-09-12T22:40:47.323Z,95355.81
2022-09-12T22:43:15.329Z,95358.88
2022-09-12T22:45:43.067Z,95366.84
2022-09-12T22:48:11.177Z,95366.06
2022-09-12T22:50:38.773Z,95364.00
2022-09-12T22:53:08.366Z,95349.34
2022-09-12T22:55:35.998Z,95350.19
2022-09-12T22:58:04.302Z,95343.84
2022-09-12T23:00:31.968Z,95342.22
2022-09-12T23:03:00.217Z,95339.97
2022-09-12T23:05:28.090Z,95329.19
2022-09-12T23:07:56.780Z,95323.72
2022-09-12T23:10:25.952Z,95328.59
2022-09-12T23:12:53.763Z,95329.59
2022-09-12T23:15:21.391Z,95336.31
2022-09-12T23:17:49.459Z,95323.88
2022-09-12T23:20:17.131Z,95327.78
2022-09-12T23:22:45.151Z,95311.06
2022-09-12T23:25:12.840Z,95304.34
2022-09-12T23:27:43.520Z,95301.28
2022-09-12T23:30:12.159Z,95293.94
2022-09-12T23:32:40.102Z,95285.63
2022-09-12T23:35:08.164Z,95287.84
2022-09-12T23:37:35.964Z,95292.72
2022-09-12T23:40:04.053Z,95296.59
2022-09-12T23:42:31.957Z,95282.53
2022-09-12T23:45:00.886Z,95281.72
2022-09-12T23:47:28.986Z,95280.91
2022-09-12T23:49:56.612Z,95281.72
2022-09-12T23:52:24.583Z,95275.19
2022-09-12T23:54:52.210Z,95280.91
2022-09-12T23:57:19.831Z,95272.38
2022-09-12T23:59:47.434Z,95267.47
